Time;durP1;ratioP1;P1;durP2;ratioP2;P2;SDS_P1;SDS_P2;PMS_P1;PMS_P2;Temp;Humidity;BMP_temperature;BMP_pressure;BME280_temperature;BME280_humidity;BME280_pressure;Samples;Min_cycle;Max_cycle;Signal;HPM_P1;HPM_P2
2021/12/16 00:01:57;;;;;;;57.07;31.17;;;;;;;6.08;66.58;101856.22;5410497;32;35085;-70
2021/12/16 00:05:26;;;;;;;56.57;31.43;;;;;;;6.98;62.33;101851.06;5436003;32;34095;-64
2021/12/16 00:34:35;;;;;;;63.27;32.93;;;;;;;6.31;65.35;101877.16;5418719;32;34798;-64
2021/12/16 00:37:37;;;;;;;57.57;32.30;;;;;;;5.98;65.75;101873.56;5419674;32;34366;-64
2021/12/16 00:40:42;;;;;;;62.58;33.08;;;;;;;6.09;65.88;101880.56;5399153;32;36451;-64
2021/12/16 00:47:00;;;;;;;59.00;33.20;;;;;;;6.31;63.10;101879.78;5413238;32;36063;-70
2021/12/16 00:50:19;;;;;;;58.00;33.37;;;;;;;5.72;65.92;101883.00;5406988;32;34493;-70
2021/12/16 00:56:57;;;;;;;65.37;34.63;;;;;;;5.66;66.35;101875.13;5426561;32;33907;-64
2021/12/16 01:00:03;;;;;;;61.30;34.07;;;;;;;5.74;66.08;101876.06;5418240;32;34061;-64
2021/12/16 01:03:19;;;;;;;66.07;34.33;;;;;;;5.20;67.12;101876.63;5437160;32;34530;-70
2021/12/16 01:40:24;;;;;;;70.20;38.43;;;;;;;4.79;69.00;101859.81;5438634;32;34150;-64
2021/12/16 01:49:58;;;;;;;71.73;38.90;;;;;;;5.00;67.66;101853.03;5438811;32;34604;-70
2021/12/16 01:59:32;;;;;;;79.43;40.80;;;;;;;5.15;67.35;101847.91;5431851;32;34662;-69
2021/12/16 02:06:04;;;;;;;82.27;40.93;;;;;;;4.84;68.17;101844.25;5437183;32;33587;-63
2021/12/16 02:09:14;;;;;;;71.13;39.73;;;;;;;5.43;67.02;101828.97;5416816;32;34182;-64
2021/12/16 02:29:31;;;;;;;71.37;38.73;;;;;;;4.65;68.49;101839.75;5414511;32;35392;-69
2021/12/16 02:35:48;;;;;;;69.70;37.37;;;;;;;4.65;68.27;101834.53;5405748;32;35034;-69
2021/12/16 02:38:55;;;;;;;75.97;39.93;;;;;;;4.85;66.97;101841.62;5435775;32;33653;-64
2021/12/16 02:42:06;;;;;;;74.53;38.13;;;;;;;4.78;66.94;101837.25;5430398;32;33019;-64
2021/12/16 02:48:37;;;;;;;66.03;36.73;;;;;;;3.82;70.38;101838.91;5437194;32;32920;-63
2021/12/16 02:51:40;;;;;;;82.30;40.60;;;;;;;4.17;70.24;101821.06;5430551;32;34469;-63
2021/12/16 02:54:43;;;;;;;78.07;39.70;;;;;;;3.95;70.53;101819.97;5410707;32;34465;-63
2021/12/16 02:58:00;;;;;;;80.28;41.85;;;;;;;3.75;70.47;101827.56;5404269;32;34206;-64
2021/12/16 03:01:30;;;;;;;77.60;42.90;;;;;;;3.83;70.87;101816.37;5392550;32;34771;-64
2021/12/16 03:04:34;;;;;;;79.60;39.27;;;;;;;4.22;68.94;101806.37;5422624;32;33864;-70
2021/12/16 03:07:36;;;;;;;75.72;40.65;;;;;;;3.96;69.80;101800.91;5419503;32;34568;-70
2021/12/16 03:14:15;;;;;;;75.93;39.83;;;;;;;4.15;70.19;101796.78;5429360;32;34641;-70
2021/12/16 03:17:27;;;;;;;84.00;41.93;;;;;;;3.70;71.39;101794.56;5410632;32;33986;-70
2021/12/16 03:30:21;;;;;;;76.73;40.53;;;;;;;4.96;67.47;101793.94;5432220;32;33969;-70
2021/12/16 03:33:50;;;;;;;80.43;43.17;;;;;;;4.49;68.05;101803.16;5420759;32;33920;-64
2021/12/16 03:37:15;;;;;;;74.80;40.30;;;;;;;4.50;68.48;101809.22;5420883;32;33531;-69
2021/12/16 03:40:17;;;;;;;88.70;44.77;;;;;;;4.35;69.76;101813.44;5427044;32;34815;-68
2021/12/16 03:43:20;;;;;;;83.80;42.73;;;;;;;5.13;66.68;101797.53;5419910;32;35311;-69
2021/12/16 03:46:28;;;;;;;86.50;46.03;;;;;;;4.87;67.52;101803.44;5412103;32;34406;-63
2021/12/16 03:49:31;;;;;;;82.90;42.93;;;;;;;4.79;67.75;101806.84;5419261;32;32836;-63
2021/12/16 03:52:34;;;;;;;84.17;43.67;;;;;;;4.85;67.40;101801.69;5424638;32;34540;-63
2021/12/16 03:55:36;;;;;;;78.27;42.77;;;;;;;4.65;67.92;101811.97;5416125;32;34584;-63
2021/12/16 03:58:40;;;;;;;78.32;41.55;;;;;;;4.76;67.79;101810.28;5436578;32;34132;-63
2021/12/16 04:01:43;;;;;;;80.77;42.27;;;;;;;4.87;67.47;101810.38;5407103;32;32705;-70
2021/12/16 04:04:45;;;;;;;87.23;43.93;;;;;;;4.89;67.89;101812.16;5406648;32;33965;-69
2021/12/16 04:07:49;;;;;;;78.82;42.38;;;;;;;4.53;72.06;101811.88;5422588;32;34483;-63
2021/12/16 04:11:02;;;;;;;78.50;42.87;;;;;;;4.76;70.00;101807.69;5418305;32;33826;-69
2021/12/16 04:14:07;;;;;;;83.32;41.65;;;;;;;5.26;68.34;101811.50;5410266;32;34420;-69
2021/12/16 04:17:11;;;;;;;84.60;43.07;;;;;;;5.48;66.92;101804.66;5406347;32;34853;-69
2021/12/16 04:20:15;;;;;;;75.10;40.53;;;;;;;5.96;65.25;101803.97;5433825;32;35659;-63
2021/12/16 04:23:18;;;;;;;70.00;40.35;;;;;;;6.00;64.94;101799.66;5412428;32;34715;-69
2021/12/16 04:26:23;;;;;;;72.62;40.45;;;;;;;5.55;65.39;101806.44;5415736;32;34528;-64
2021/12/16 04:29:26;;;;;;;78.07;41.40;;;;;;;5.79;64.58;101810.84;5421550;32;34571;-63
2021/12/16 04:32:29;;;;;;;87.28;41.90;;;;;;;5.77;64.82;101808.25;5405669;32;34444;-70
2021/12/16 04:35:31;;;;;;;76.33;41.93;;;;;;;5.57;65.73;101809.91;5439323;32;34318;-70
2021/12/16 04:38:35;;;;;;;80.63;43.20;;;;;;;4.63;68.47;101813.66;5418972;32;35381;-64
2021/12/16 04:41:38;;;;;;;;;;;;;;;4.66;69.44;101818.91;5397854;32;34012;-71
2021/12/16 04:44:42;;;;;;;80.20;40.73;;;;;;;4.98;68.00;101815.69;5439101;32;34936;-64
2021/12/16 04:47:45;;;;;;;81.07;41.27;;;;;;;5.08;67.51;101807.03;5406827;32;34105;-64
2021/12/16 04:50:48;;;;;;;77.97;40.80;;;;;;;5.53;66.36;101803.78;5412048;32;35176;-64
2021/12/16 04:53:51;;;;;;;78.60;42.30;;;;;;;5.08;66.87;101799.22;5418124;32;36299;-65
2021/12/16 04:56:54;;;;;;;78.43;41.70;;;;;;;4.67;69.03;101799.81;5423450;32;34097;-70
2021/12/16 04:59:56;;;;;;;80.93;42.15;;;;;;;5.21;66.98;101785.38;5419589;32;34808;-69
2021/12/16 05:02:58;;;;;;;77.80;40.40;;;;;;;4.93;68.88;101794.78;5417449;32;34781;-69
2021/12/16 05:06:01;;;;;;;81.77;40.27;;;;;;;4.77;69.81;101798.16;5424438;32;34086;-64
2021/12/16 05:09:06;;;;;;;72.33;36.83;;;;;;;4.77;70.15;101787.75;5432621;32;35389;-70
2021/12/16 05:12:10;;;;;;;70.40;37.73;;;;;;;5.59;67.68;101798.59;5424914;32;35176;-64
2021/12/16 05:15:16;;;;;;;70.77;37.23;;;;;;;5.65;67.13;101789.94;5417216;32;33020;-64
2021/12/16 05:18:25;;;;;;;72.33;39.37;;;;;;;5.52;67.97;101785.53;5435262;32;34312;-71
2021/12/16 05:24:50;;;;;;;60.13;32.13;;;;;;;5.46;69.34;101793.34;5420941;32;34391;-70
2021/12/16 05:27:52;;;;;;;;;;;;;;;5.64;67.87;101798.63;5398516;32;33806;-68
2021/12/16 05:30:55;;;;;;;66.87;32.83;;;;;;;5.04;72.70;101802.69;5425110;32;34595;-69
2021/12/16 05:33:58;;;;;;;61.08;29.85;;;;;;;5.71;70.67;101806.47;5438402;32;34498;-69
2021/12/16 05:37:04;;;;;;;60.33;27.50;;;;;;;5.96;69.45;101803.97;5405660;32;32831;-63
2021/12/16 05:40:07;;;;;;;61.00;30.30;;;;;;;4.64;76.07;101815.44;5418376;32;34633;-69
2021/12/16 05:43:13;;;;;;;63.30;30.53;;;;;;;4.64;76.30;101820.66;5424127;32;34632;-64
2021/12/16 05:46:19;;;;;;;63.23;31.00;;;;;;;4.73;75.89;101822.44;5417200;32;32979;-64
2021/12/16 05:49:21;;;;;;;61.87;30.37;;;;;;;5.05;75.82;101817.47;5424235;32;35241;-69
2021/12/16 05:52:24;;;;;;;65.97;31.17;;;;;;;5.43;73.64;101822.88;5431406;32;34771;-69
2021/12/16 05:55:27;;;;;;;64.07;31.43;;;;;;;5.07;75.04;101821.81;5419422;32;33023;-70
2021/12/16 05:58:30;;;;;;;64.10;34.38;;;;;;;4.47;76.04;101825.69;5409263;32;35104;-70
2021/12/16 06:01:36;;;;;;;74.28;38.88;;;;;;;4.76;75.95;101823.31;5416311;32;33511;-64
2021/12/16 06:04:39;;;;;;;71.90;38.00;;;;;;;4.25;76.25;101828.94;5437861;32;35084;-69
2021/12/16 06:07:42;;;;;;;65.95;35.60;;;;;;;4.46;74.21;101826.56;5402551;32;34705;-64
2021/12/16 06:28:17;;;;;;;51.87;25.70;;;;;;;4.38;73.72;101793.50;5423124;27;35801;-64
2021/12/16 06:31:21;;;;;;;53.27;28.20;;;;;;;5.05;72.39;101826.16;5776534;26;34806;-63
2021/12/16 06:34:25;;;;;;;48.93;26.63;;;;;;;4.81;72.25;101824.22;5463790;32;34794;-69
2021/12/16 06:37:28;;;;;;;48.38;26.55;;;;;;;4.58;72.60;101828.41;5454613;32;32997;-70
2021/12/16 06:40:32;;;;;;;52.00;28.57;;;;;;;5.35;70.26;101822.84;5453461;32;34590;-69
2021/12/16 06:43:53;;;;;;;51.67;28.67;;;;;;;4.85;71.95;101830.34;5435646;32;33984;-65
2021/12/16 06:47:07;;;;;;;54.50;27.77;;;;;;;4.78;72.52;101832.03;5441674;32;34677;-69
2021/12/16 06:50:26;;;;;;;53.27;28.20;;;;;;;5.77;68.17;101831.72;5455841;32;36597;-64
2021/12/16 06:53:45;;;;;;;68.40;34.93;;;;;;;5.77;67.54;101834.31;5449282;32;34356;-63
2021/12/16 07:01:16;;;;;;;51.10;27.87;;;;;;;4.34;73.57;101848.16;5415881;32;36811;-76
2021/12/16 07:04:21;;;;;;;53.53;28.40;;;;;;;5.31;70.58;101849.75;5387109;32;32932;-66
2021/12/16 07:07:24;;;;;;;62.90;31.80;;;;;;;6.18;65.97;101846.66;5392036;32;33974;-71
2021/12/16 07:10:37;;;;;;;60.70;31.90;;;;;;;5.06;69.79;101853.94;5397310;32;33968;-70
2021/12/16 07:14:04;;;;;;;58.17;30.93;;;;;;;3.97;75.25;101854.69;5393325;32;34387;-69
2021/12/16 07:17:15;;;;;;;58.67;31.03;;;;;;;3.88;76.60;101857.19;5393060;32;34053;-68
2021/12/16 07:20:26;;;;;;;62.53;31.77;;;;;;;4.05;77.89;101853.03;5403261;32;33973;-70
2021/12/16 07:23:32;;;;;;;59.97;31.20;;;;;;;4.72;74.63;101851.97;5403782;32;32923;-71
2021/12/16 07:26:35;;;;;;;58.73;29.33;;;;;;;4.96;72.57;101840.81;5398280;32;34393;-68
2021/12/16 07:29:39;;;;;;;51.00;28.08;;;;;;;5.20;72.40;101845.34;5392393;32;34384;-68
2021/12/16 07:32:54;;;;;;;59.77;30.70;;;;;;;6.22;68.41;101833.63;5428125;32;37560;-70
2021/12/16 07:36:05;;;;;;;52.37;28.50;;;;;;;6.53;66.22;101843.25;5440819;32;34978;-62
2021/12/16 07:39:11;;;;;;;55.40;29.60;;;;;;;6.55;66.01;101836.25;5430968;32;34273;-65
2021/12/16 07:46:05;;;;;;;56.30;28.97;;;;;;;6.38;67.38;101841.50;5409925;32;35047;-64
2021/12/16 07:49:41;;;;;;;57.07;28.50;;;;;;;6.74;65.15;101838.88;5352106;32;34182;-62
2021/12/16 07:52:44;;;;;;;56.93;29.43;;;;;;;6.32;66.92;101837.13;5352296;32;34109;-63
2021/12/16 07:55:48;;;;;;;57.77;30.00;;;;;;;6.08;68.20;101837.06;5347959;32;34232;-62
2021/12/16 07:58:52;;;;;;;55.40;28.20;;;;;;;5.82;70.09;101837.84;5345550;32;33370;-61
2021/12/16 08:06:05;;;;;;;56.27;29.00;;;;;;;5.89;70.22;101834.38;5360058;32;35556;-61
2021/12/16 08:09:09;;;;;;;65.80;33.33;;;;;;;6.18;68.45;101839.72;5349117;32;35185;-67
2021/12/16 08:12:16;;;;;;;64.90;30.33;;;;;;;4.97;74.30;101846.06;5337107;32;32864;-68
2021/12/16 08:15:19;;;;;;;64.12;30.48;;;;;;;5.59;73.07;101845.56;5361273;32;34489;-66
2021/12/16 08:18:21;;;;;;;61.03;30.23;;;;;;;5.74;70.93;101843.91;5383541;32;32591;-63
2021/12/16 08:21:28;;;;;;;63.60;31.00;;;;;;;6.62;67.59;101843.22;5375413;32;34545;-62
2021/12/16 08:24:33;;;;;;;64.27;32.03;;;;;;;6.40;67.71;101839.75;5378788;32;34982;-63
2021/12/16 08:27:41;;;;;;;70.83;31.50;;;;;;;5.67;69.81;101845.59;5363032;32;32891;-62
2021/12/16 08:31:01;;;;;;;62.55;31.52;;;;;;;5.57;71.67;101846.41;5377015;32;36822;-65
2021/12/16 08:34:10;;;;;;;62.53;31.57;;;;;;;5.39;72.62;101848.06;5382113;32;35266;-65
2021/12/16 08:37:30;;;;;;;61.30;29.50;;;;;;;5.22;73.20;101844.50;5378431;32;37328;-63
2021/12/16 08:40:45;;;;;;;54.63;28.00;;;;;;;5.37;73.75;101851.53;5394760;32;33901;-62
2021/12/16 08:43:52;;;;;;;55.13;27.97;;;;;;;6.29;69.78;101846.69;5403015;32;35336;-63
2021/12/16 08:47:00;;;;;;;61.92;28.90;;;;;;;6.57;69.37;101844.97;5394956;32;34205;-61
2021/12/16 08:50:06;;;;;;;54.97;27.77;;;;;;;6.48;69.65;101836.25;5412458;32;33838;-63
2021/12/16 08:53:10;;;;;;;55.57;26.50;;;;;;;6.75;67.74;101834.53;5415423;32;35256;-66
2021/12/16 08:56:17;;;;;;;50.97;25.13;;;;;;;7.10;66.42;101828.41;5401675;32;35251;-74
2021/12/16 08:59:38;;;;;;;51.03;25.73;;;;;;;6.40;68.62;101834.53;5392773;32;37765;-74
2021/12/16 09:02:42;;;;;;;49.23;23.77;;;;;;;6.33;70.83;101836.25;5395495;32;33949;-69
2021/12/16 09:06:02;;;;;;;45.93;21.60;;;;;;;6.80;69.74;101827.56;5361489;32;1361212;-65
2021/12/16 09:09:23;;;;;;;49.67;22.50;;;;;;;7.28;66.83;101821.38;5395386;32;34109;-68
2021/12/16 09:12:50;;;;;;;44.80;21.50;;;;;;;6.51;71.41;101835.41;5403557;32;35643;-70
2021/12/16 09:16:06;;;;;;;48.50;22.70;;;;;;;6.27;73.79;101824.94;5392698;32;33197;-71
2021/12/16 09:19:16;;;;;;;47.87;22.10;;;;;;;6.46;72.36;101826.69;5384916;32;34045;-64
2021/12/16 09:22:24;;;;;;;44.83;21.53;;;;;;;6.54;72.29;101824.06;5412171;32;35144;-71
2021/12/16 09:25:41;;;;;;;44.37;22.40;;;;;;;6.26;73.52;101824.06;5408482;32;35535;-69
2021/12/16 09:28:44;;;;;;;49.43;22.53;;;;;;;6.67;72.36;101818.84;5379621;32;34545;-67
2021/12/16 09:32:13;;;;;;;43.93;21.50;;;;;;;7.83;67.48;101815.94;5376970;32;34167;-73
2021/12/16 09:35:30;;;;;;;45.57;22.07;;;;;;;7.60;68.86;101815.19;5384141;32;34610;-72
2021/12/16 09:38:39;;;;;;;40.42;20.92;;;;;;;8.31;65.70;101807.81;5379146;32;34023;-65
2021/12/16 09:41:48;;;;;;;45.67;20.87;;;;;;;8.62;64.33;101814.53;5377413;32;34726;-74
2021/12/16 09:44:59;;;;;;;44.60;22.30;;;;;;;7.26;69.79;101814.41;5383470;32;35470;-72
2021/12/16 09:48:09;;;;;;;44.00;22.03;;;;;;;7.27;69.79;101808.28;5369078;32;34096;-70
2021/12/16 09:51:21;;;;;;;44.80;23.03;;;;;;;6.51;72.37;101814.50;5368353;32;35563;-69
2021/12/16 09:54:29;;;;;;;42.92;22.45;;;;;;;7.26;71.36;101810.03;5370734;32;35221;-70
2021/12/16 09:57:33;;;;;;;47.10;23.10;;;;;;;7.34;70.14;101804.78;5379350;32;34350;-68
2021/12/16 10:00:39;;;;;;;52.40;26.47;;;;;;;6.96;71.40;101802.28;5365416;32;35373;-70
2021/12/16 10:03:56;;;;;;;49.47;25.43;;;;;;;7.28;70.52;101804.84;5373826;32;33285;-70
2021/12/16 10:07:04;;;;;;;60.43;29.77;;;;;;;6.95;70.57;101803.13;5382016;32;33977;-70
2021/12/16 10:10:11;;;;;;;66.73;30.33;;;;;;;7.38;69.15;101808.28;5352415;32;36254;-71
2021/12/16 10:13:22;;;;;;;55.50;29.47;;;;;;;7.61;68.05;101798.59;5413009;32;33049;-71
2021/12/16 10:20:26;;;;;;;50.87;26.77;;;;;;;7.15;69.48;101790.91;5434593;32;35483;-63
2021/12/16 10:24:01;;;;;;;61.57;27.67;;;;;;;7.75;67.15;101788.94;5401215;32;34395;-68
2021/12/16 10:27:27;;;;;;;46.90;24.60;;;;;;;7.93;67.28;101780.09;5404455;32;35373;-67
2021/12/16 10:30:49;;;;;;;45.73;24.27;;;;;;;7.68;66.88;101776.75;5408510;32;35794;-65
2021/12/16 10:34:02;;;;;;;47.57;27.07;;;;;;;8.01;68.25;101765.22;5424549;32;34493;-68
2021/12/16 10:37:13;;;;;;;46.80;23.30;;;;;;;7.27;69.58;101767.31;5430404;32;33067;-71
2021/12/16 10:40:43;;;;;;;46.53;23.13;;;;;;;8.20;66.88;101768.56;5428555;32;34531;-67
2021/12/16 10:43:57;;;;;;;50.37;25.57;;;;;;;8.47;65.35;101757.03;5420688;32;33241;-65
2021/12/16 10:47:12;;;;;;;51.05;26.85;;;;;;;8.33;65.43;101770.22;5426402;32;34126;-69
2021/12/16 10:50:15;;;;;;;49.83;26.53;;;;;;;7.44;68.68;101763.78;5419841;32;34130;-64
2021/12/16 10:53:47;;;;;;;51.03;26.10;;;;;;;7.40;69.27;101759.44;5417179;32;35257;-66
2021/12/16 10:57:12;;;;;;;50.13;23.10;;;;;;;7.96;67.69;101759.13;5419363;32;34620;-69
2021/12/16 11:00:23;;;;;;;44.13;22.23;;;;;;;7.24;70.29;101759.50;5429843;32;34609;-70
2021/12/16 11:03:43;;;;;;;38.50;20.27;;;;;;;8.43;65.89;101760.56;5424462;32;33995;-69
2021/12/16 11:06:59;;;;;;;43.60;20.20;;;;;;;7.47;70.02;101768.97;5454171;32;32922;-74
2021/12/16 11:10:15;;;;;;;40.53;20.07;;;;;;;7.15;70.98;101771.72;5455327;32;35530;-71
2021/12/16 11:13:33;;;;;;;42.00;19.43;;;;;;;6.45;73.39;101772.72;5456130;32;33572;-71
2021/12/16 11:16:36;;;;;;;38.03;19.77;;;;;;;6.71;72.21;101773.56;5441977;32;33943;-65
2021/12/16 11:19:45;;;;;;;38.08;19.02;;;;;;;6.81;73.00;101766.56;5451236;32;34133;-65
2021/12/16 11:22:59;;;;;;;35.50;18.03;;;;;;;7.27;71.69;101761.22;5446778;32;34185;-72
2021/12/16 11:26:18;;;;;;;37.33;18.90;;;;;;;7.87;68.22;101759.19;5451132;32;35068;-62
2021/12/16 11:29:22;;;;;;;37.03;18.93;;;;;;;7.81;68.09;101752.25;5444116;32;34135;-64
2021/12/16 11:32:41;;;;;;;36.80;18.03;;;;;;;7.86;68.47;101741.75;5455898;32;35104;-65
2021/12/16 11:35:55;;;;;;;38.33;17.93;;;;;;;7.39;71.17;101744.63;5447022;32;33844;-67
2021/12/16 11:39:03;;;;;;;37.67;19.87;;;;;;;7.70;68.77;101750.56;5449074;32;33755;-65
2021/12/16 11:42:07;;;;;;;37.63;18.73;;;;;;;7.20;70.77;101749.91;5448653;32;34077;-67
2021/12/16 11:45:10;;;;;;;39.30;19.77;;;;;;;7.73;69.85;101740.06;5438804;32;34152;-63
2021/12/16 11:48:35;;;;;;;36.60;18.50;;;;;;;7.46;71.29;101735.84;5440750;32;34481;-66
2021/12/16 11:51:56;;;;;;;37.00;19.20;;;;;;;7.92;68.89;101741.72;5430927;32;32944;-68
2021/12/16 11:55:11;;;;;;;37.67;18.90;;;;;;;8.02;69.11;101726.81;5443991;32;33769;-63
2021/12/16 11:58:26;;;;;;;35.03;18.77;;;;;;;7.44;71.30;101722.78;5420979;32;33698;-63
2021/12/16 12:01:32;;;;;;;38.60;19.47;;;;;;;8.17;68.92;101720.56;5420754;32;34653;-67
2021/12/16 12:04:36;;;;;;;33.60;17.33;;;;;;;8.63;66.45;101713.19;5417345;32;34846;-66
2021/12/16 12:07:54;;;;;;;36.80;18.35;;;;;;;9.25;63.64;101714.25;5421838;32;35256;-66
2021/12/16 12:11:16;;;;;;;32.33;17.40;;;;;;;8.44;67.10;101723.00;5431135;32;36154;-67
2021/12/16 12:14:34;;;;;;;35.60;17.57;;;;;;;8.14;67.81;101730.22;5427610;32;34888;-68
2021/12/16 12:17:52;;;;;;;30.90;16.73;;;;;;;8.93;64.95;101722.50;5432561;32;33820;-68
2021/12/16 12:20:54;;;;;;;33.27;17.13;;;;;;;9.99;61.50;101719.38;5433263;32;33991;-68
2021/12/16 12:24:02;;;;;;;35.65;18.83;;;;;;;9.39;62.68;101721.94;5426750;32;35035;-65
2021/12/16 12:27:19;;;;;;;32.63;17.13;;;;;;;9.08;64.21;101719.72;5422866;32;34101;-72
2021/12/16 12:30:29;;;;;;;34.40;17.93;;;;;;;7.42;69.74;101723.69;5431991;32;34098;-67
2021/12/16 12:33:36;;;;;;;34.13;17.57;;;;;;;8.24;67.30;101722.25;5427125;32;35508;-67
2021/12/16 12:36:40;;;;;;;35.90;17.98;;;;;;;8.56;65.76;101722.88;5431431;32;35285;-67
2021/12/16 12:39:48;;;;;;;33.80;17.30;;;;;;;8.91;65.04;101721.66;5431321;32;34202;-66
2021/12/16 12:43:04;;;;;;;32.50;18.07;;;;;;;8.90;64.68;101719.94;5424740;32;33333;-64
2021/12/16 12:46:19;;;;;;;31.27;16.37;;;;;;;9.10;64.42;101723.19;5434026;32;34009;-66
2021/12/16 12:49:27;;;;;;;34.93;17.33;;;;;;;8.25;66.66;101727.50;5427886;32;35411;-64
2021/12/16 12:52:34;;;;;;;33.87;17.93;;;;;;;8.80;66.03;101715.66;5430639;32;34170;-66
2021/12/16 12:55:38;;;;;;;32.47;17.87;;;;;;;8.54;66.41;101715.94;5446586;32;34591;-68
2021/12/16 12:59:01;;;;;;;35.08;18.73;;;;;;;7.95;68.45;101720.75;5419724;32;35370;-64
2021/12/16 13:02:18;;;;;;;35.00;17.83;;;;;;;8.04;68.46;101711.94;5439209;32;33895;-64
2021/12/16 13:05:22;;;;;;;33.30;18.00;;;;;;;7.99;68.87;101719.00;5441901;32;35212;-65
2021/12/16 13:08:32;;;;;;;35.07;18.30;;;;;;;7.53;71.25;101727.09;5446793;32;34092;-67
2021/12/16 13:11:38;;;;;;;33.53;18.50;;;;;;;7.63;70.21;101731.41;5450245;32;34673;-65
2021/12/16 13:14:51;;;;;;;33.10;17.23;;;;;;;7.53;71.05;101734.94;5435951;32;34136;-63
2021/12/16 13:24:53;;;;;;;34.03;17.17;;;;;;;7.63;71.39;101738.41;5435668;32;34133;-71
2021/12/16 13:28:03;;;;;;;34.03;18.50;;;;;;;7.27;72.60;101737.69;5442118;32;35529;-67
2021/12/16 13:31:26;;;;;;;35.67;18.07;;;;;;;7.03;74.05;101731.69;5423838;32;33984;-71
2021/12/16 13:34:59;;;;;;;34.73;18.30;;;;;;;7.66;71.53;101735.75;5444386;32;35564;-69
2021/12/16 13:38:07;;;;;;;35.67;17.33;;;;;;;7.81;70.28;101730.44;5444588;32;33929;-69
2021/12/16 13:41:17;;;;;;;35.93;18.33;;;;;;;7.28;72.30;101737.69;5445002;32;34375;-63
2021/12/16 13:44:41;;;;;;;32.57;17.97;;;;;;;7.82;70.21;101740.03;5447279;32;33868;-68
2021/12/16 13:47:57;;;;;;;31.93;17.43;;;;;;;7.56;71.55;101748.03;5452236;32;34039;-68
2021/12/16 14:07:59;;;;;;;30.10;17.30;;;;;;;8.85;66.80;101735.69;5435963;32;34259;-68
2021/12/16 14:11:29;;;;;;;30.87;16.70;;;;;;;8.70;66.88;101737.63;5446563;32;35018;-65
2021/12/16 14:18:02;;;;;;;32.87;17.03;;;;;;;8.14;68.94;101745.06;5439718;32;34181;-63
2021/12/16 14:25:00;;;;;;;34.43;16.70;;;;;;;7.17;73.02;101749.94;5431330;32;34720;-62
2021/12/16 14:32:02;;;;;;;31.13;15.60;;;;;;;8.62;67.13;101738.53;5450296;32;35215;-68
2021/12/16 14:35:30;;;;;;;29.17;15.13;;;;;;;9.07;65.28;101736.31;5444049;32;34245;-68
2021/12/16 14:39:00;;;;;;;;;;;;;;;8.23;67.23;101731.87;5445599;32;34170;-65
2021/12/16 14:45:36;;;;;;;29.70;15.67;;;;;;;7.59;70.59;101746.25;5428212;32;35080;-61
2021/12/16 14:48:46;;;;;;;31.70;16.77;;;;;;;8.18;68.88;101740.62;5431162;32;35131;-65
2021/12/16 14:52:05;;;;;;;27.97;15.03;;;;;;;7.96;69.41;101740.81;5424377;32;33692;-67
2021/12/16 14:55:12;;;;;;;27.83;16.07;;;;;;;8.29;68.70;101746.69;5426850;32;35328;-66
2021/12/16 14:58:43;;;;;;;28.50;15.87;;;;;;;8.52;66.92;101749.16;5438764;32;34023;-63
2021/12/16 15:01:57;;;;;;;27.10;14.83;;;;;;;8.13;69.59;101744.19;5438766;32;36845;-70
2021/12/16 15:09:48;;;;;;;25.80;14.57;;;;;;;9.02;65.55;101742.53;5448148;32;35746;-64
2021/12/16 15:13:04;;;;;;;28.07;15.53;;;;;;;8.68;66.68;101725.37;5457523;32;34791;-68
2021/12/16 15:43:38;;;;;;;24.25;13.27;;;;;;;9.91;61.44;101739.59;5457204;32;32722;-63
2021/12/16 15:46:42;;;;;;;25.97;12.97;;;;;;;9.50;62.95;101733.19;5449651;32;34599;-63
2021/12/16 15:49:46;;;;;;;24.67;12.77;;;;;;;9.13;64.34;101738.87;5446570;32;34109;-63
2021/12/16 15:52:54;;;;;;;23.17;13.20;;;;;;;7.88;68.85;101740.00;5433211;32;34939;-62
2021/12/16 15:56:18;;;;;;;27.23;13.00;;;;;;;8.86;66.03;101739.19;5433023;32;34173;-63
2021/12/16 15:59:28;;;;;;;24.55;13.55;;;;;;;8.54;66.61;101740.38;5445519;32;33260;-63
2021/12/16 16:02:32;;;;;;;24.63;12.33;;;;;;;8.83;65.44;101740.09;5457263;32;32709;-63
2021/12/16 16:05:47;;;;;;;21.90;12.30;;;;;;;8.73;66.33;101748.06;5443635;32;35035;-64
2021/12/16 16:08:55;;;;;;;26.77;12.90;;;;;;;8.70;65.44;101750.72;5454403;32;34241;-62
2021/12/16 16:11:58;;;;;;;23.43;13.17;;;;;;;8.48;67.14;101758.78;5451157;32;33737;-64
2021/12/16 16:15:16;;;;;;;23.83;13.37;;;;;;;8.67;66.86;101760.34;5451209;32;34252;-62
2021/12/16 16:21:42;;;;;;;22.17;13.23;;;;;;;8.08;69.00;101763.44;5454073;32;34862;-64
2021/12/16 16:24:51;;;;;;;22.10;13.70;;;;;;;8.29;68.54;101754.53;5442425;32;35331;-62
2021/12/16 16:27:54;;;;;;;25.07;13.40;;;;;;;8.28;67.93;101742.31;5430239;32;34180;-64
2021/12/16 16:30:59;;;;;;;23.08;13.35;;;;;;;8.23;68.24;101751.97;5452806;32;34390;-62
2021/12/16 16:34:12;;;;;;;24.27;13.80;;;;;;;8.61;67.10;101741.19;5442911;32;34980;-63
2021/12/16 16:37:28;;;;;;;28.45;16.58;;;;;;;9.08;64.51;101737.19;5453457;32;33841;-63
2021/12/16 16:40:37;;;;;;;25.03;13.33;;;;;;;8.63;65.79;101750.78;5456946;32;33981;-63
2021/12/16 16:43:53;;;;;;;24.80;12.57;;;;;;;9.06;64.96;101749.47;5458594;32;34047;-63
2021/12/16 16:47:13;;;;;;;21.60;11.73;;;;;;;8.72;64.71;101748.97;5455602;32;35327;-65
2021/12/16 16:50:24;;;;;;;23.33;12.83;;;;;;;8.67;66.12;101754.22;5452666;32;33997;-62
2021/12/16 16:53:30;;;;;;;22.65;12.27;;;;;;;8.05;67.42;101755.56;5452522;32;35167;-63
2021/12/16 16:57:10;;;;;;;22.23;12.17;;;;;;;8.10;67.88;101759.91;5435975;32;32885;-62
2021/12/16 17:00:34;;;;;;;23.90;12.63;;;;;;;7.82;68.58;101750.50;5459259;32;35734;-63
2021/12/16 17:03:45;;;;;;;27.50;14.53;;;;;;;8.78;64.81;101739.28;5461199;32;33153;-62
2021/12/16 17:06:55;;;;;;;21.57;12.17;;;;;;;8.59;66.61;101741.22;5447629;32;33331;-62
2021/12/16 17:09:57;;;;;;;21.13;11.93;;;;;;;8.71;65.53;101758.56;5444049;32;34133;-63
2021/12/16 17:13:17;;;;;;;24.00;12.60;;;;;;;9.34;62.93;101752.63;5455572;32;34013;-64
2021/12/16 17:19:38;;;;;;;22.23;12.40;;;;;;;8.32;66.69;101758.00;5468692;32;33861;-64
2021/12/16 17:22:48;;;;;;;21.03;11.27;;;;;;;7.70;68.61;101748.81;5441698;32;33151;-62
2021/12/16 17:25:52;;;;;;;24.20;11.97;;;;;;;8.12;66.65;101744.19;5448837;32;35672;-62
2021/12/16 17:29:13;;;;;;;24.37;12.90;;;;;;;8.87;64.51;101744.41;5447249;32;34052;-63
2021/12/16 17:32:23;;;;;;;23.10;12.70;;;;;;;7.80;68.77;101747.91;5454098;32;34235;-62
2021/12/16 17:35:36;;;;;;;24.87;12.67;;;;;;;7.51;69.93;101739.31;5460185;32;34634;-63
2021/12/16 17:38:39;;;;;;;24.53;13.40;;;;;;;7.53;69.14;101748.91;5455808;32;34389;-63
2021/12/16 17:41:56;;;;;;;23.73;12.63;;;;;;;8.14;66.67;101750.28;5448703;32;34158;-63
2021/12/16 17:45:06;;;;;;;24.93;12.30;;;;;;;7.80;68.26;101757.50;5432942;32;33360;-65
2021/12/16 17:48:15;;;;;;;19.52;11.20;;;;;;;7.61;68.55;101772.44;5438102;32;34570;-63
2021/12/16 17:51:26;;;;;;;24.03;12.80;;;;;;;8.13;65.97;101775.59;5461111;32;34719;-62
2021/12/16 17:54:28;;;;;;;22.83;11.60;;;;;;;8.30;65.45;101762.37;5461483;32;33360;-63
2021/12/16 17:57:34;;;;;;;20.67;11.00;;;;;;;7.74;67.13;101765.37;5440985;32;34097;-63
2021/12/16 18:00:56;;;;;;;25.20;12.27;;;;;;;7.16;69.34;101763.88;5456290;32;32937;-64
2021/12/16 18:04:09;;;;;;;26.30;12.40;;;;;;;7.19;69.75;101758.63;5448708;32;33953;-63
2021/12/16 18:07:11;;;;;;;22.40;11.73;;;;;;;7.48;68.10;101755.91;5445391;32;35217;-61
2021/12/16 18:10:16;;;;;;;23.30;12.50;;;;;;;8.02;66.44;101753.00;5436626;32;34576;-61
2021/12/16 18:13:19;;;;;;;23.97;12.87;;;;;;;8.28;65.42;101748.44;5450925;32;34182;-62
2021/12/16 18:16:26;;;;;;;24.27;13.07;;;;;;;7.38;68.01;101741.13;5446116;32;33995;-63
2021/12/16 18:19:33;;;;;;;23.03;11.57;;;;;;;7.72;67.61;101733.09;5443155;32;34665;-64
2021/12/16 18:22:38;;;;;;;24.00;13.40;;;;;;;7.90;66.47;101727.75;5446725;32;34774;-62
2021/12/16 18:25:46;;;;;;;22.77;11.90;;;;;;;7.97;66.12;101728.59;5441443;32;34738;-63
2021/12/16 18:28:50;;;;;;;25.67;14.87;;;;;;;8.91;62.66;101716.41;5452369;32;35001;-63